sensor_id;sensor_type;location;lat;lon;timestamp;P1;durP1;ratioP1;P2;durP2;ratioP2
36423;SDS011;22458;45.328;9.514;2023-02-19T00:01:28;11.13;;;7.63;;
36423;SDS011;22458;45.328;9.514;2023-02-19T00:04:06;10.00;;;7.85;;
36423;SDS011;22458;45.328;9.514;2023-02-19T00:06:43;11.05;;;8.18;;
36423;SDS011;22458;45.328;9.514;2023-02-19T00:09:11;9.38;;;7.25;;
36423;SDS011;22458;45.328;9.514;2023-02-19T00:11:38;8.52;;;7.30;;
36423;SDS011;22458;45.328;9.514;2023-02-19T00:14:04;10.95;;;8.15;;
36423;SDS011;22458;45.328;9.514;2023-02-19T00:16:37;9.65;;;7.88;;
36423;SDS011;22458;45.328;9.514;2023-02-19T00:19:05;11.13;;;8.57;;
36423;SDS011;22458;45.328;9.514;2023-02-19T00:21:32;10.18;;;7.88;;
36423;SDS011;22458;45.328;9.514;2023-02-19T00:24:02;11.30;;;8.30;;
36423;SDS011;22458;45.328;9.514;2023-02-19T00:26:30;13.45;;;9.07;;
36423;SDS011;22458;45.328;9.514;2023-02-19T00:31:26;10.40;;;8.52;;
36423;SDS011;22458;45.328;9.514;2023-02-19T00:33:54;10.18;;;8.02;;
36423;SDS011;22458;45.328;9.514;2023-02-19T00:36:21;12.70;;;8.80;;
36423;SDS011;22458;45.328;9.514;2023-02-19T00:38:48;12.15;;;9.15;;
36423;SDS011;22458;45.328;9.514;2023-02-19T00:41:15;11.68;;;8.73;;
36423;SDS011;22458;45.328;9.514;2023-02-19T00:43:46;11.57;;;8.20;;
36423;SDS011;22458;45.328;9.514;2023-02-19T00:46:37;9.38;;;7.97;;
36423;SDS011;22458;45.328;9.514;2023-02-19T00:49:03;8.90;;;7.22;;
36423;SDS011;22458;45.328;9.514;2023-02-19T00:51:31;10.18;;;7.95;;
36423;SDS011;22458;45.328;9.514;2023-02-19T00:54:01;11.63;;;8.27;;
36423;SDS011;22458;45.328;9.514;2023-02-19T00:56:27;10.95;;;8.40;;
36423;SDS011;22458;45.328;9.514;2023-02-19T00:58:53;13.48;;;9.18;;
36423;SDS011;22458;45.328;9.514;2023-02-19T01:01:20;13.23;;;8.77;;
36423;SDS011;22458;45.328;9.514;2023-02-19T01:03:46;11.77;;;8.30;;
36423;SDS011;22458;45.328;9.514;2023-02-19T01:06:13;12.20;;;8.60;;
36423;SDS011;22458;45.328;9.514;2023-02-19T01:08:40;11.02;;;8.43;;
36423;SDS011;22458;45.328;9.514;2023-02-19T01:11:07;12.73;;;8.55;;
36423;SDS011;22458;45.328;9.514;2023-02-19T01:13:34;9.75;;;7.72;;
36423;SDS011;22458;45.328;9.514;2023-02-19T01:16:11;12.27;;;8.82;;
36423;SDS011;22458;45.328;9.514;2023-02-19T01:18:41;12.10;;;8.45;;
36423;SDS011;22458;45.328;9.514;2023-02-19T01:21:10;11.77;;;8.30;;
36423;SDS011;22458;45.328;9.514;2023-02-19T01:23:38;11.05;;;8.48;;
36423;SDS011;22458;45.328;9.514;2023-02-19T01:26:07;12.27;;;8.32;;
36423;SDS011;22458;45.328;9.514;2023-02-19T01:28:35;10.68;;;8.23;;
36423;SDS011;22458;45.328;9.514;2023-02-19T01:31:05;12.65;;;8.50;;
36423;SDS011;22458;45.328;9.514;2023-02-19T01:33:32;10.85;;;8.30;;
36423;SDS011;22458;45.328;9.514;2023-02-19T01:35:59;11.00;;;9.02;;
36423;SDS011;22458;45.328;9.514;2023-02-19T01:38:27;12.25;;;9.25;;
36423;SDS011;22458;45.328;9.514;2023-02-19T01:40:56;12.50;;;9.10;;
36423;SDS011;22458;45.328;9.514;2023-02-19T01:43:23;11.45;;;8.65;;
36423;SDS011;22458;45.328;9.514;2023-02-19T01:45:49;13.98;;;8.60;;
36423;SDS011;22458;45.328;9.514;2023-02-19T01:48:16;10.38;;;8.43;;
36423;SDS011;22458;45.328;9.514;2023-02-19T01:50:45;11.93;;;8.23;;
36423;SDS011;22458;45.328;9.514;2023-02-19T01:53:15;11.48;;;8.82;;
36423;SDS011;22458;45.328;9.514;2023-02-19T01:55:45;10.32;;;8.40;;
36423;SDS011;22458;45.328;9.514;2023-02-19T01:58:14;12.07;;;9.30;;
36423;SDS011;22458;45.328;9.514;2023-02-19T02:00:41;11.25;;;8.38;;
36423;SDS011;22458;45.328;9.514;2023-02-19T02:03:09;11.48;;;9.32;;
36423;SDS011;22458;45.328;9.514;2023-02-19T02:05:42;11.32;;;8.70;;
36423;SDS011;22458;45.328;9.514;2023-02-19T02:08:09;12.73;;;9.27;;
36423;SDS011;22458;45.328;9.514;2023-02-19T02:10:56;11.52;;;8.82;;
36423;SDS011;22458;45.328;9.514;2023-02-19T02:13:22;13.55;;;8.73;;
36423;SDS011;22458;45.328;9.514;2023-02-19T02:19:25;13.18;;;9.73;;
36423;SDS011;22458;45.328;9.514;2023-02-19T02:38:11;10.90;;;9.10;;
36423;SDS011;22458;45.328;9.514;2023-02-19T02:40:40;11.85;;;9.20;;
36423;SDS011;22458;45.328;9.514;2023-02-19T02:43:09;10.80;;;8.18;;
36423;SDS011;22458;45.328;9.514;2023-02-19T02:45:37;11.88;;;9.13;;
36423;SDS011;22458;45.328;9.514;2023-02-19T02:48:26;14.82;;;10.13;;
36423;SDS011;22458;45.328;9.514;2023-02-19T02:50:58;14.13;;;9.25;;
36423;SDS011;22458;45.328;9.514;2023-02-19T02:56:19;13.85;;;9.77;;
36423;SDS011;22458;45.328;9.514;2023-02-19T02:58:46;11.90;;;8.85;;
36423;SDS011;22458;45.328;9.514;2023-02-19T03:01:15;12.02;;;8.88;;
36423;SDS011;22458;45.328;9.514;2023-02-19T03:04:32;12.00;;;9.85;;
36423;SDS011;22458;45.328;9.514;2023-02-19T03:07:37;12.30;;;9.60;;
36423;SDS011;22458;45.328;9.514;2023-02-19T03:10:26;16.17;;;8.93;;
36423;SDS011;22458;45.328;9.514;2023-02-19T03:15:52;13.88;;;8.75;;
36423;SDS011;22458;45.328;9.514;2023-02-19T03:18:47;12.10;;;9.02;;
36423;SDS011;22458;45.328;9.514;2023-02-19T03:24:05;10.65;;;8.45;;
36423;SDS011;22458;45.328;9.514;2023-02-19T03:26:53;14.82;;;9.18;;
36423;SDS011;22458;45.328;9.514;2023-02-19T03:29:22;10.18;;;8.02;;
36423;SDS011;22458;45.328;9.514;2023-02-19T03:31:57;14.25;;;9.50;;
36423;SDS011;22458;45.328;9.514;2023-02-19T03:34:32;12.35;;;8.52;;
36423;SDS011;22458;45.328;9.514;2023-02-19T03:37:03;13.40;;;9.23;;
36423;SDS011;22458;45.328;9.514;2023-02-19T03:39:36;12.80;;;9.45;;
36423;SDS011;22458;45.328;9.514;2023-02-19T03:42:55;11.82;;;8.63;;
36423;SDS011;22458;45.328;9.514;2023-02-19T03:50:49;6.82;;;5.20;;
36423;SDS011;22458;45.328;9.514;2023-02-19T03:56:08;7.72;;;6.07;;
36423;SDS011;22458;45.328;9.514;2023-02-19T04:01:29;7.43;;;5.97;;
36423;SDS011;22458;45.328;9.514;2023-02-19T04:06:30;7.28;;;5.63;;
36423;SDS011;22458;45.328;9.514;2023-02-19T04:08:59;7.22;;;5.90;;
36423;SDS011;22458;45.328;9.514;2023-02-19T04:14:10;8.10;;;5.43;;
36423;SDS011;22458;45.328;9.514;2023-02-19T04:16:43;6.53;;;5.50;;
36423;SDS011;22458;45.328;9.514;2023-02-19T04:19:13;6.53;;;4.78;;
36423;SDS011;22458;45.328;9.514;2023-02-19T04:21:42;8.68;;;5.03;;
36423;SDS011;22458;45.328;9.514;2023-02-19T04:24:10;6.97;;;5.55;;
36423;SDS011;22458;45.328;9.514;2023-02-19T04:26:40;5.35;;;4.63;;
36423;SDS011;22458;45.328;9.514;2023-02-19T04:29:08;6.55;;;5.80;;
36423;SDS011;22458;45.328;9.514;2023-02-19T04:31:33;6.13;;;5.15;;
36423;SDS011;22458;45.328;9.514;2023-02-19T04:34:01;5.65;;;4.57;;
36423;SDS011;22458;45.328;9.514;2023-02-19T04:36:28;6.10;;;4.82;;
36423;SDS011;22458;45.328;9.514;2023-02-19T04:41:23;8.50;;;5.72;;
36423;SDS011;22458;45.328;9.514;2023-02-19T04:43:49;5.95;;;5.32;;
36423;SDS011;22458;45.328;9.514;2023-02-19T04:46:15;7.05;;;5.28;;
36423;SDS011;22458;45.328;9.514;2023-02-19T04:48:40;5.85;;;5.25;;
36423;SDS011;22458;45.328;9.514;2023-02-19T04:51:07;6.53;;;5.30;;
36423;SDS011;22458;45.328;9.514;2023-02-19T04:53:34;6.63;;;5.32;;
36423;SDS011;22458;45.328;9.514;2023-02-19T04:56:04;8.25;;;5.97;;
36423;SDS011;22458;45.328;9.514;2023-02-19T04:58:37;6.38;;;5.78;;
36423;SDS011;22458;45.328;9.514;2023-02-19T05:01:03;6.75;;;4.97;;
36423;SDS011;22458;45.328;9.514;2023-02-19T05:03:29;6.30;;;5.18;;
36423;SDS011;22458;45.328;9.514;2023-02-19T05:05:55;6.20;;;5.20;;
36423;SDS011;22458;45.328;9.514;2023-02-19T05:08:21;6.53;;;4.93;;
36423;SDS011;22458;45.328;9.514;2023-02-19T05:10:47;5.65;;;4.72;;
36423;SDS011;22458;45.328;9.514;2023-02-19T05:13:13;5.07;;;4.53;;
36423;SDS011;22458;45.328;9.514;2023-02-19T05:15:38;6.45;;;4.55;;
36423;SDS011;22458;45.328;9.514;2023-02-19T05:18:04;4.90;;;4.40;;
36423;SDS011;22458;45.328;9.514;2023-02-19T05:20:30;5.25;;;4.05;;
36423;SDS011;22458;45.328;9.514;2023-02-19T05:22:56;6.57;;;5.47;;
36423;SDS011;22458;45.328;9.514;2023-02-19T05:25:21;7.40;;;6.22;;
36423;SDS011;22458;45.328;9.514;2023-02-19T05:27:47;5.68;;;4.80;;
36423;SDS011;22458;45.328;9.514;2023-02-19T05:30:13;4.90;;;4.22;;
36423;SDS011;22458;45.328;9.514;2023-02-19T05:32:39;6.13;;;4.93;;
36423;SDS011;22458;45.328;9.514;2023-02-19T05:35:05;5.13;;;4.60;;
36423;SDS011;22458;45.328;9.514;2023-02-19T05:37:31;5.95;;;4.65;;
36423;SDS011;22458;45.328;9.514;2023-02-19T05:39:56;5.75;;;4.85;;
36423;SDS011;22458;45.328;9.514;2023-02-19T05:42:22;6.28;;;5.10;;
36423;SDS011;22458;45.328;9.514;2023-02-19T05:44:48;6.43;;;5.07;;
36423;SDS011;22458;45.328;9.514;2023-02-19T05:47:13;8.02;;;5.75;;
36423;SDS011;22458;45.328;9.514;2023-02-19T05:49:39;7.30;;;5.00;;
36423;SDS011;22458;45.328;9.514;2023-02-19T05:52:05;6.55;;;5.25;;
36423;SDS011;22458;45.328;9.514;2023-02-19T05:54:31;6.70;;;5.38;;
36423;SDS011;22458;45.328;9.514;2023-02-19T05:56:56;4.60;;;4.10;;
36423;SDS011;22458;45.328;9.514;2023-02-19T05:59:23;5.55;;;4.78;;
36423;SDS011;22458;45.328;9.514;2023-02-19T06:01:51;4.38;;;3.63;;
36423;SDS011;22458;45.328;9.514;2023-02-19T06:04:18;5.68;;;4.65;;
36423;SDS011;22458;45.328;9.514;2023-02-19T06:06:44;25.30;;;7.28;;
36423;SDS011;22458;45.328;9.514;2023-02-19T06:09:11;4.97;;;4.18;;
36423;SDS011;22458;45.328;9.514;2023-02-19T06:11:37;5.13;;;4.03;;
36423;SDS011;22458;45.328;9.514;2023-02-19T06:14:04;4.20;;;3.75;;
36423;SDS011;22458;45.328;9.514;2023-02-19T06:16:30;5.47;;;4.05;;
36423;SDS011;22458;45.328;9.514;2023-02-19T06:18:58;4.07;;;3.50;;
36423;SDS011;22458;45.328;9.514;2023-02-19T06:21:25;4.88;;;4.00;;
36423;SDS011;22458;45.328;9.514;2023-02-19T06:23:51;5.25;;;4.47;;
36423;SDS011;22458;45.328;9.514;2023-02-19T06:26:18;5.72;;;4.10;;
36423;SDS011;22458;45.328;9.514;2023-02-19T06:28:48;6.90;;;5.20;;
36423;SDS011;22458;45.328;9.514;2023-02-19T06:31:15;5.32;;;4.38;;
36423;SDS011;22458;45.328;9.514;2023-02-19T06:33:42;4.43;;;3.83;;
36423;SDS011;22458;45.328;9.514;2023-02-19T06:36:12;6.20;;;3.63;;
36423;SDS011;22458;45.328;9.514;2023-02-19T06:38:40;5.40;;;3.50;;
36423;SDS011;22458;45.328;9.514;2023-02-19T06:41:06;4.35;;;3.95;;
36423;SDS011;22458;45.328;9.514;2023-02-19T06:43:34;6.35;;;4.05;;
36423;SDS011;22458;45.328;9.514;2023-02-19T06:46:00;5.70;;;4.68;;
36423;SDS011;22458;45.328;9.514;2023-02-19T06:48:28;5.63;;;4.53;;
36423;SDS011;22458;45.328;9.514;2023-02-19T06:50:55;5.35;;;4.35;;
36423;SDS011;22458;45.328;9.514;2023-02-19T06:53:21;6.53;;;4.53;;
36423;SDS011;22458;45.328;9.514;2023-02-19T06:55:54;8.13;;;5.07;;
36423;SDS011;22458;45.328;9.514;2023-02-19T06:58:23;6.80;;;5.47;;
36423;SDS011;22458;45.328;9.514;2023-02-19T07:00:49;7.35;;;6.13;;
36423;SDS011;22458;45.328;9.514;2023-02-19T07:03:15;10.50;;;6.80;;
36423;SDS011;22458;45.328;9.514;2023-02-19T07:05:41;11.93;;;7.63;;
36423;SDS011;22458;45.328;9.514;2023-02-19T07:08:08;8.75;;;6.82;;
36423;SDS011;22458;45.328;9.514;2023-02-19T07:10:34;10.18;;;6.85;;
36423;SDS011;22458;45.328;9.514;2023-02-19T07:13:00;7.18;;;6.45;;
36423;SDS011;22458;45.328;9.514;2023-02-19T07:15:25;10.50;;;7.40;;
36423;SDS011;22458;45.328;9.514;2023-02-19T07:17:51;7.75;;;6.75;;
36423;SDS011;22458;45.328;9.514;2023-02-19T07:20:17;9.02;;;6.75;;
36423;SDS011;22458;45.328;9.514;2023-02-19T07:22:43;7.93;;;6.60;;
36423;SDS011;22458;45.328;9.514;2023-02-19T07:25:08;8.00;;;6.25;;
36423;SDS011;22458;45.328;9.514;2023-02-19T07:27:34;8.18;;;6.85;;
36423;SDS011;22458;45.328;9.514;2023-02-19T07:30:00;8.02;;;6.85;;
36423;SDS011;22458;45.328;9.514;2023-02-19T07:32:26;10.02;;;6.95;;
36423;SDS011;22458;45.328;9.514;2023-02-19T07:34:52;8.88;;;7.30;;
36423;SDS011;22458;45.328;9.514;2023-02-19T07:37:19;7.03;;;6.25;;
36423;SDS011;22458;45.328;9.514;2023-02-19T07:39:44;8.65;;;6.85;;
36423;SDS011;22458;45.328;9.514;2023-02-19T07:42:11;9.73;;;8.02;;
36423;SDS011;22458;45.328;9.514;2023-02-19T07:44:37;8.00;;;7.20;;
36423;SDS011;22458;45.328;9.514;2023-02-19T07:47:02;8.55;;;6.85;;
36423;SDS011;22458;45.328;9.514;2023-02-19T07:49:28;9.88;;;8.20;;
36423;SDS011;22458;45.328;9.514;2023-02-19T07:51:54;8.70;;;7.80;;
36423;SDS011;22458;45.328;9.514;2023-02-19T07:54:20;8.68;;;7.78;;
36423;SDS011;22458;45.328;9.514;2023-02-19T07:56:46;9.35;;;7.43;;
36423;SDS011;22458;45.328;9.514;2023-02-19T07:59:11;9.05;;;7.07;;
36423;SDS011;22458;45.328;9.514;2023-02-19T08:01:37;11.90;;;8.10;;
36423;SDS011;22458;45.328;9.514;2023-02-19T08:04:22;8.07;;;6.88;;
36423;SDS011;22458;45.328;9.514;2023-02-19T08:06:47;8.50;;;7.28;;
36423;SDS011;22458;45.328;9.514;2023-02-19T08:09:13;8.95;;;7.47;;
36423;SDS011;22458;45.328;9.514;2023-02-19T08:11:39;9.38;;;7.88;;
36423;SDS011;22458;45.328;9.514;2023-02-19T08:14:23;8.38;;;7.03;;
36423;SDS011;22458;45.328;9.514;2023-02-19T08:16:50;8.88;;;7.25;;
36423;SDS011;22458;45.328;9.514;2023-02-19T08:19:17;9.13;;;7.43;;
36423;SDS011;22458;45.328;9.514;2023-02-19T08:21:43;9.38;;;7.97;;
36423;SDS011;22458;45.328;9.514;2023-02-19T08:24:09;8.43;;;7.55;;
36423;SDS011;22458;45.328;9.514;2023-02-19T08:26:35;9.30;;;7.60;;
36423;SDS011;22458;45.328;9.514;2023-02-19T08:29:01;10.13;;;7.82;;
36423;SDS011;22458;45.328;9.514;2023-02-19T08:31:28;11.82;;;8.63;;
36423;SDS011;22458;45.328;9.514;2023-02-19T08:33:54;10.63;;;8.85;;
36423;SDS011;22458;45.328;9.514;2023-02-19T08:36:19;10.57;;;8.98;;
36423;SDS011;22458;45.328;9.514;2023-02-19T08:38:45;12.40;;;9.27;;
36423;SDS011;22458;45.328;9.514;2023-02-19T08:41:12;12.65;;;9.38;;
36423;SDS011;22458;45.328;9.514;2023-02-19T08:43:38;11.98;;;9.98;;
36423;SDS011;22458;45.328;9.514;2023-02-19T08:46:05;12.07;;;9.77;;
36423;SDS011;22458;45.328;9.514;2023-02-19T08:48:32;12.68;;;9.70;;
36423;SDS011;22458;45.328;9.514;2023-02-19T08:50:59;14.73;;;10.20;;
36423;SDS011;22458;45.328;9.514;2023-02-19T08:53:28;14.70;;;10.80;;
36423;SDS011;22458;45.328;9.514;2023-02-19T08:55:55;14.82;;;11.90;;
36423;SDS011;22458;45.328;9.514;2023-02-19T08:58:21;14.50;;;11.80;;
36423;SDS011;22458;45.328;9.514;2023-02-19T09:00:49;14.52;;;11.45;;
36423;SDS011;22458;45.328;9.514;2023-02-19T09:03:15;16.42;;;10.85;;
36423;SDS011;22458;45.328;9.514;2023-02-19T09:05:41;16.48;;;12.30;;
36423;SDS011;22458;45.328;9.514;2023-02-19T09:08:07;16.55;;;12.05;;
36423;SDS011;22458;45.328;9.514;2023-02-19T09:10:34;15.55;;;12.95;;
36423;SDS011;22458;45.328;9.514;2023-02-19T09:13:00;17.52;;;12.50;;
36423;SDS011;22458;45.328;9.514;2023-02-19T09:15:26;16.05;;;12.15;;
36423;SDS011;22458;45.328;9.514;2023-02-19T09:17:53;31.23;;;16.15;;
36423;SDS011;22458;45.328;9.514;2023-02-19T09:20:19;19.95;;;12.80;;
36423;SDS011;22458;45.328;9.514;2023-02-19T09:22:45;16.50;;;13.05;;
36423;SDS011;22458;45.328;9.514;2023-02-19T09:25:11;19.23;;;13.30;;
36423;SDS011;22458;45.328;9.514;2023-02-19T09:27:37;20.17;;;13.73;;
36423;SDS011;22458;45.328;9.514;2023-02-19T09:30:02;16.38;;;12.25;;
36423;SDS011;22458;45.328;9.514;2023-02-19T09:32:29;17.88;;;12.82;;
36423;SDS011;22458;45.328;9.514;2023-02-19T09:34:55;18.70;;;13.48;;
36423;SDS011;22458;45.328;9.514;2023-02-19T09:37:25;17.40;;;13.27;;
36423;SDS011;22458;45.328;9.514;2023-02-19T09:39:52;20.52;;;13.68;;
36423;SDS011;22458;45.328;9.514;2023-02-19T09:42:18;18.10;;;13.13;;
36423;SDS011;22458;45.328;9.514;2023-02-19T09:44:50;17.75;;;13.65;;
36423;SDS011;22458;45.328;9.514;2023-02-19T09:47:19;19.57;;;12.80;;
36423;SDS011;22458;45.328;9.514;2023-02-19T09:49:51;15.35;;;12.90;;
36423;SDS011;22458;45.328;9.514;2023-02-19T09:54:56;18.63;;;14.25;;
36423;SDS011;22458;45.328;9.514;2023-02-19T09:57:25;17.27;;;12.98;;
36423;SDS011;22458;45.328;9.514;2023-02-19T10:00:11;17.17;;;13.63;;
36423;SDS011;22458;45.328;9.514;2023-02-19T10:03:03;23.77;;;14.93;;
36423;SDS011;22458;45.328;9.514;2023-02-19T10:05:31;18.17;;;13.15;;
36423;SDS011;22458;45.328;9.514;2023-02-19T10:07:58;21.83;;;15.40;;
36423;SDS011;22458;45.328;9.514;2023-02-19T10:10:26;19.27;;;13.55;;
36423;SDS011;22458;45.328;9.514;2023-02-19T10:12:55;19.67;;;14.30;;
36423;SDS011;22458;45.328;9.514;2023-02-19T10:15:35;20.30;;;15.15;;
36423;SDS011;22458;45.328;9.514;2023-02-19T10:18:05;20.25;;;14.93;;
36423;SDS011;22458;45.328;9.514;2023-02-19T10:20:31;21.67;;;14.75;;
36423;SDS011;22458;45.328;9.514;2023-02-19T10:23:01;19.50;;;14.88;;
36423;SDS011;22458;45.328;9.514;2023-02-19T10:25:30;20.95;;;15.43;;
36423;SDS011;22458;45.328;9.514;2023-02-19T10:28:00;19.83;;;15.30;;
36423;SDS011;22458;45.328;9.514;2023-02-19T10:30:28;18.88;;;14.25;;
36423;SDS011;22458;45.328;9.514;2023-02-19T10:33:12;22.15;;;16.23;;
36423;SDS011;22458;45.328;9.514;2023-02-19T10:35:52;19.35;;;15.52;;
36423;SDS011;22458;45.328;9.514;2023-02-19T10:38:24;22.25;;;15.90;;
36423;SDS011;22458;45.328;9.514;2023-02-19T10:40:56;20.23;;;15.90;;
36423;SDS011;22458;45.328;9.514;2023-02-19T10:43:27;19.38;;;14.63;;
36423;SDS011;22458;45.328;9.514;2023-02-19T10:45:58;18.42;;;14.75;;
36423;SDS011;22458;45.328;9.514;2023-02-19T10:48:28;17.60;;;13.43;;
36423;SDS011;22458;45.328;9.514;2023-02-19T10:51:04;18.92;;;13.93;;
36423;SDS011;22458;45.328;9.514;2023-02-19T10:53:38;18.45;;;14.20;;
36423;SDS011;22458;45.328;9.514;2023-02-19T10:56:13;17.05;;;13.57;;
36423;SDS011;22458;45.328;9.514;2023-02-19T10:58:41;17.83;;;13.15;;
36423;SDS011;22458;45.328;9.514;2023-02-19T11:01:13;16.45;;;12.80;;
36423;SDS011;22458;45.328;9.514;2023-02-19T11:03:47;19.42;;;14.93;;
36423;SDS011;22458;45.328;9.514;2023-02-19T11:06:20;17.83;;;13.90;;
36423;SDS011;22458;45.328;9.514;2023-02-19T11:11:57;17.88;;;13.95;;
36423;SDS011;22458;45.328;9.514;2023-02-19T11:14:18;19.05;;;13.57;;
36423;SDS011;22458;45.328;9.514;2023-02-19T11:16:47;16.02;;;13.13;;
36423;SDS011;22458;45.328;9.514;2023-02-19T11:19:28;16.40;;;12.60;;
36423;SDS011;22458;45.328;9.514;2023-02-19T11:22:23;16.85;;;12.88;;
36423;SDS011;22458;45.328;9.514;2023-02-19T11:24:52;15.65;;;10.75;;
36423;SDS011;22458;45.328;9.514;2023-02-19T11:27:22;18.17;;;10.70;;
36423;SDS011;22458;45.328;9.514;2023-02-19T11:29:49;10.38;;;8.65;;
36423;SDS011;22458;45.328;9.514;2023-02-19T11:32:19;10.15;;;8.43;;
36423;SDS011;22458;45.328;9.514;2023-02-19T11:35:13;8.68;;;7.43;;
36423;SDS011;22458;45.328;9.514;2023-02-19T11:37:56;10.02;;;7.63;;
36423;SDS011;22458;45.328;9.514;2023-02-19T11:40:28;13.07;;;7.88;;
36423;SDS011;22458;45.328;9.514;2023-02-19T11:43:20;8.75;;;6.60;;
36423;SDS011;22458;45.328;9.514;2023-02-19T11:46:01;9.88;;;6.80;;
36423;SDS011;22458;45.328;9.514;2023-02-19T11:57:04;10.30;;;7.55;;
36423;SDS011;22458;45.328;9.514;2023-02-19T12:02:58;11.80;;;7.40;;
36423;SDS011;22458;45.328;9.514;2023-02-19T12:16:59;10.07;;;7.13;;
36423;SDS011;22458;45.328;9.514;2023-02-19T12:28:35;8.77;;;6.38;;
36423;SDS011;22458;45.328;9.514;2023-02-19T12:36:47;9.02;;;6.38;;
36423;SDS011;22458;45.328;9.514;2023-02-19T12:42:27;9.45;;;7.25;;
36423;SDS011;22458;45.328;9.514;2023-02-19T12:45:17;10.52;;;7.55;;
36423;SDS011;22458;45.328;9.514;2023-02-19T12:48:17;9.73;;;7.22;;
36423;SDS011;22458;45.328;9.514;2023-02-19T12:50:50;9.43;;;7.00;;
36423;SDS011;22458;45.328;9.514;2023-02-19T12:56:03;10.10;;;7.40;;
36423;SDS011;22458;45.328;9.514;2023-02-19T12:58:37;9.43;;;7.15;;
36423;SDS011;22458;45.328;9.514;2023-02-19T13:01:17;8.70;;;7.18;;
36423;SDS011;22458;45.328;9.514;2023-02-19T13:03:49;8.82;;;7.13;;
36423;SDS011;22458;45.328;9.514;2023-02-19T13:06:36;9.85;;;8.27;;
36423;SDS011;22458;45.328;9.514;2023-02-19T13:09:14;10.02;;;7.43;;
36423;SDS011;22458;45.328;9.514;2023-02-19T13:12:01;9.25;;;7.75;;
36423;SDS011;22458;45.328;9.514;2023-02-19T13:15:08;8.55;;;6.93;;
36423;SDS011;22458;45.328;9.514;2023-02-19T13:17:26;8.63;;;7.00;;
36423;SDS011;22458;45.328;9.514;2023-02-19T13:20:09;8.50;;;6.90;;
36423;SDS011;22458;45.328;9.514;2023-02-19T13:36:43;8.05;;;6.68;;
36423;SDS011;22458;45.328;9.514;2023-02-19T13:39:12;7.43;;;5.95;;
36423;SDS011;22458;45.328;9.514;2023-02-19T13:41:40;5.90;;;5.30;;
36423;SDS011;22458;45.328;9.514;2023-02-19T13:44:34;7.82;;;5.95;;
36423;SDS011;22458;45.328;9.514;2023-02-19T13:47:01;8.13;;;6.22;;
36423;SDS011;22458;45.328;9.514;2023-02-19T13:51:56;8.70;;;6.25;;
36423;SDS011;22458;45.328;9.514;2023-02-19T13:54:32;8.98;;;6.68;;
36423;SDS011;22458;45.328;9.514;2023-02-19T13:59:42;6.95;;;5.50;;
36423;SDS011;22458;45.328;9.514;2023-02-19T14:04:48;12.38;;;5.28;;
36423;SDS011;22458;45.328;9.514;2023-02-19T14:14:39;6.78;;;4.78;;
36423;SDS011;22458;45.328;9.514;2023-02-19T14:28:02;6.22;;;4.72;;
36423;SDS011;22458;45.328;9.514;2023-02-19T14:33:20;6.00;;;4.78;;
36423;SDS011;22458;45.328;9.514;2023-02-19T14:35:51;6.25;;;5.05;;
36423;SDS011;22458;45.328;9.514;2023-02-19T14:39:03;6.70;;;4.82;;
36423;SDS011;22458;45.328;9.514;2023-02-19T14:41:14;7.15;;;4.95;;
36423;SDS011;22458;45.328;9.514;2023-02-19T14:43:41;6.80;;;5.05;;
36423;SDS011;22458;45.328;9.514;2023-02-19T14:46:22;6.80;;;4.80;;
36423;SDS011;22458;45.328;9.514;2023-02-19T14:48:49;5.10;;;4.60;;
36423;SDS011;22458;45.328;9.514;2023-02-19T14:53:52;5.25;;;4.47;;
36423;SDS011;22458;45.328;9.514;2023-02-19T14:56:24;6.95;;;5.22;;
36423;SDS011;22458;45.328;9.514;2023-02-19T15:01:57;7.28;;;4.82;;
36423;SDS011;22458;45.328;9.514;2023-02-19T15:04:27;6.80;;;5.07;;
36423;SDS011;22458;45.328;9.514;2023-02-19T15:06:55;6.03;;;5.03;;
36423;SDS011;22458;45.328;9.514;2023-02-19T15:09:29;6.28;;;5.25;;
36423;SDS011;22458;45.328;9.514;2023-02-19T15:12:06;4.60;;;4.03;;
36423;SDS011;22458;45.328;9.514;2023-02-19T15:14:38;6.78;;;4.97;;
36423;SDS011;22458;45.328;9.514;2023-02-19T15:17:04;6.80;;;4.53;;
36423;SDS011;22458;45.328;9.514;2023-02-19T15:19:31;7.05;;;4.80;;
36423;SDS011;22458;45.328;9.514;2023-02-19T15:24:26;7.30;;;5.55;;
36423;SDS011;22458;45.328;9.514;2023-02-19T15:26:53;7.78;;;6.03;;
36423;SDS011;22458;45.328;9.514;2023-02-19T15:29:21;6.07;;;4.35;;
36423;SDS011;22458;45.328;9.514;2023-02-19T15:31:58;7.25;;;4.95;;
36423;SDS011;22458;45.328;9.514;2023-02-19T15:34:26;7.57;;;5.25;;
36423;SDS011;22458;45.328;9.514;2023-02-19T15:37:03;7.38;;;5.45;;
36423;SDS011;22458;45.328;9.514;2023-02-19T15:40:05;7.82;;;5.18;;
36423;SDS011;22458;45.328;9.514;2023-02-19T15:42:28;5.20;;;4.70;;
36423;SDS011;22458;45.328;9.514;2023-02-19T15:44:58;5.97;;;4.70;;
36423;SDS011;22458;45.328;9.514;2023-02-19T15:47:40;5.68;;;4.63;;
36423;SDS011;22458;45.328;9.514;2023-02-19T15:55:23;6.45;;;5.70;;
36423;SDS011;22458;45.328;9.514;2023-02-19T15:57:57;6.22;;;4.75;;
36423;SDS011;22458;45.328;9.514;2023-02-19T16:03:17;7.78;;;5.05;;
36423;SDS011;22458;45.328;9.514;2023-02-19T16:05:45;6.15;;;5.00;;
36423;SDS011;22458;45.328;9.514;2023-02-19T16:08:26;9.90;;;5.45;;
36423;SDS011;22458;45.328;9.514;2023-02-19T16:10:58;8.77;;;6.13;;
36423;SDS011;22458;45.328;9.514;2023-02-19T16:13:27;7.35;;;5.07;;
36423;SDS011;22458;45.328;9.514;2023-02-19T16:15:56;8.95;;;5.82;;
36423;SDS011;22458;45.328;9.514;2023-02-19T16:18:34;9.60;;;5.55;;
36423;SDS011;22458;45.328;9.514;2023-02-19T16:21:02;6.43;;;5.68;;
36423;SDS011;22458;45.328;9.514;2023-02-19T16:23:32;7.63;;;5.90;;
36423;SDS011;22458;45.328;9.514;2023-02-19T16:25:58;8.63;;;6.43;;
36423;SDS011;22458;45.328;9.514;2023-02-19T16:28:26;7.68;;;5.35;;
36423;SDS011;22458;45.328;9.514;2023-02-19T16:30:58;9.82;;;7.95;;
36423;SDS011;22458;45.328;9.514;2023-02-19T16:41:31;7.50;;;6.25;;
36423;SDS011;22458;45.328;9.514;2023-02-19T16:43:58;8.95;;;6.53;;
36423;SDS011;22458;45.328;9.514;2023-02-19T16:46:30;8.90;;;6.13;;
36423;SDS011;22458;45.328;9.514;2023-02-19T16:48:56;7.22;;;5.28;;
36423;SDS011;22458;45.328;9.514;2023-02-19T16:51:23;8.32;;;5.35;;
36423;SDS011;22458;45.328;9.514;2023-02-19T16:53:50;6.72;;;5.60;;
36423;SDS011;22458;45.328;9.514;2023-02-19T16:56:17;7.45;;;5.78;;
36423;SDS011;22458;45.328;9.514;2023-02-19T16:58:46;8.10;;;5.80;;
36423;SDS011;22458;45.328;9.514;2023-02-19T17:01:11;8.13;;;7.07;;
36423;SDS011;22458;45.328;9.514;2023-02-19T17:03:37;8.10;;;6.75;;
36423;SDS011;22458;45.328;9.514;2023-02-19T17:06:03;9.65;;;7.95;;
36423;SDS011;22458;45.328;9.514;2023-02-19T17:11:00;7.28;;;5.72;;
36423;SDS011;22458;45.328;9.514;2023-02-19T17:13:28;8.23;;;6.77;;
36423;SDS011;22458;45.328;9.514;2023-02-19T17:15:54;11.73;;;8.60;;
36423;SDS011;22458;45.328;9.514;2023-02-19T17:18:21;11.68;;;8.60;;
36423;SDS011;22458;45.328;9.514;2023-02-19T17:20:54;11.85;;;9.32;;
36423;SDS011;22458;45.328;9.514;2023-02-19T17:23:41;11.32;;;7.90;;
36423;SDS011;22458;45.328;9.514;2023-02-19T17:26:17;22.85;;;8.13;;
36423;SDS011;22458;45.328;9.514;2023-02-19T17:28:45;14.82;;;10.35;;
36423;SDS011;22458;45.328;9.514;2023-02-19T17:31:11;15.48;;;12.23;;
36423;SDS011;22458;45.328;9.514;2023-02-19T17:33:38;14.00;;;10.20;;
36423;SDS011;22458;45.328;9.514;2023-02-19T17:36:05;15.00;;;11.38;;
36423;SDS011;22458;45.328;9.514;2023-02-19T17:38:31;11.23;;;9.43;;
36423;SDS011;22458;45.328;9.514;2023-02-19T17:40:57;12.35;;;9.65;;
36423;SDS011;22458;45.328;9.514;2023-02-19T17:43:23;14.90;;;9.50;;
36423;SDS011;22458;45.328;9.514;2023-02-19T17:45:49;13.13;;;8.43;;